sensor_id;sensor_type;location;lat;lon;timestamp;P1;durP1;ratioP1;P2;durP2;ratioP2
5587;SDS011;2816;49.778;9.986;2023-12-28T00:02:19;4.20;;;3.17;;
5587;SDS011;2816;49.778;9.986;2023-12-28T00:04:46;4.17;;;2.93;;
5587;SDS011;2816;49.778;9.986;2023-12-28T00:07:13;3.47;;;2.93;;
5587;SDS011;2816;49.778;9.986;2023-12-28T00:09:40;5.97;;;3.23;;
5587;SDS011;2816;49.778;9.986;2023-12-28T00:12:07;6.23;;;3.40;;
5587;SDS011;2816;49.778;9.986;2023-12-28T00:14:34;6.13;;;4.13;;
5587;SDS011;2816;49.778;9.986;2023-12-28T00:17:02;6.73;;;3.90;;
5587;SDS011;2816;49.778;9.986;2023-12-28T00:19:29;14.43;;;4.67;;
5587;SDS011;2816;49.778;9.986;2023-12-28T00:21:56;6.87;;;4.70;;
5587;SDS011;2816;49.778;9.986;2023-12-28T00:24:23;9.20;;;5.20;;
5587;SDS011;2816;49.778;9.986;2023-12-28T00:26:50;6.67;;;4.30;;
5587;SDS011;2816;49.778;9.986;2023-12-28T00:29:17;8.50;;;3.90;;
5587;SDS011;2816;49.778;9.986;2023-12-28T00:31:43;6.70;;;4.00;;
5587;SDS011;2816;49.778;9.986;2023-12-28T00:34:12;4.50;;;3.73;;
5587;SDS011;2816;49.778;9.986;2023-12-28T00:36:38;3.83;;;3.27;;
5587;SDS011;2816;49.778;9.986;2023-12-28T00:39:05;5.07;;;3.63;;
5587;SDS011;2816;49.778;9.986;2023-12-28T00:41:33;4.77;;;3.37;;
5587;SDS011;2816;49.778;9.986;2023-12-28T00:44:00;7.87;;;3.50;;
5587;SDS011;2816;49.778;9.986;2023-12-28T00:46:27;4.20;;;3.20;;
5587;SDS011;2816;49.778;9.986;2023-12-28T00:48:54;3.80;;;2.70;;
5587;SDS011;2816;49.778;9.986;2023-12-28T00:51:23;5.87;;;3.37;;
5587;SDS011;2816;49.778;9.986;2023-12-28T00:53:49;3.63;;;3.07;;
5587;SDS011;2816;49.778;9.986;2023-12-28T00:56:16;4.47;;;3.03;;
5587;SDS011;2816;49.778;9.986;2023-12-28T00:58:45;5.90;;;3.23;;
5587;SDS011;2816;49.778;9.986;2023-12-28T01:01:12;5.80;;;2.90;;
5587;SDS011;2816;49.778;9.986;2023-12-28T01:03:39;5.00;;;3.00;;
5587;SDS011;2816;49.778;9.986;2023-12-28T01:06:07;3.60;;;2.70;;
5587;SDS011;2816;49.778;9.986;2023-12-28T01:08:35;5.77;;;3.17;;
5587;SDS011;2816;49.778;9.986;2023-12-28T01:11:02;4.70;;;3.00;;
5587;SDS011;2816;49.778;9.986;2023-12-28T01:13:29;4.27;;;2.83;;
5587;SDS011;2816;49.778;9.986;2023-12-28T01:15:56;4.90;;;3.00;;
5587;SDS011;2816;49.778;9.986;2023-12-28T01:18:23;5.70;;;3.40;;
5587;SDS011;2816;49.778;9.986;2023-12-28T01:20:51;6.70;;;3.20;;
5587;SDS011;2816;49.778;9.986;2023-12-28T01:23:18;4.00;;;3.00;;
5587;SDS011;2816;49.778;9.986;2023-12-28T01:25:47;4.60;;;3.30;;
5587;SDS011;2816;49.778;9.986;2023-12-28T01:28:14;4.20;;;2.80;;
5587;SDS011;2816;49.778;9.986;2023-12-28T01:30:41;9.67;;;3.57;;
5587;SDS011;2816;49.778;9.986;2023-12-28T01:33:09;3.10;;;2.87;;
5587;SDS011;2816;49.778;9.986;2023-12-28T01:35:36;8.80;;;3.17;;
5587;SDS011;2816;49.778;9.986;2023-12-28T01:38:03;3.70;;;2.90;;
5587;SDS011;2816;49.778;9.986;2023-12-28T01:40:30;3.53;;;3.03;;
5587;SDS011;2816;49.778;9.986;2023-12-28T01:42:58;4.63;;;3.23;;
5587;SDS011;2816;49.778;9.986;2023-12-28T01:45:25;8.80;;;2.87;;
5587;SDS011;2816;49.778;9.986;2023-12-28T01:47:53;7.90;;;3.17;;
5587;SDS011;2816;49.778;9.986;2023-12-28T01:50:21;4.70;;;3.30;;
5587;SDS011;2816;49.778;9.986;2023-12-28T01:52:50;4.33;;;2.93;;
5587;SDS011;2816;49.778;9.986;2023-12-28T01:55:17;4.40;;;3.40;;
5587;SDS011;2816;49.778;9.986;2023-12-28T01:57:46;3.30;;;2.67;;
5587;SDS011;2816;49.778;9.986;2023-12-28T02:00:14;3.00;;;2.70;;
5587;SDS011;2816;49.778;9.986;2023-12-28T02:02:41;4.60;;;2.70;;
5587;SDS011;2816;49.778;9.986;2023-12-28T02:05:09;4.47;;;3.00;;
5587;SDS011;2816;49.778;9.986;2023-12-28T02:07:37;3.30;;;2.80;;
5587;SDS011;2816;49.778;9.986;2023-12-28T02:10:04;4.53;;;2.90;;
5587;SDS011;2816;49.778;9.986;2023-12-28T02:12:32;3.33;;;2.67;;
5587;SDS011;2816;49.778;9.986;2023-12-28T02:14:59;7.10;;;2.97;;
5587;SDS011;2816;49.778;9.986;2023-12-28T02:17:28;4.40;;;3.47;;
5587;SDS011;2816;49.778;9.986;2023-12-28T02:19:59;3.80;;;2.90;;
5587;SDS011;2816;49.778;9.986;2023-12-28T02:22:30;4.60;;;2.53;;
5587;SDS011;2816;49.778;9.986;2023-12-28T02:25:08;4.20;;;2.90;;
5587;SDS011;2816;49.778;9.986;2023-12-28T02:27:38;2.77;;;2.27;;
5587;SDS011;2816;49.778;9.986;2023-12-28T02:30:07;3.60;;;2.70;;
5587;SDS011;2816;49.778;9.986;2023-12-28T02:32:44;6.13;;;3.20;;
5587;SDS011;2816;49.778;9.986;2023-12-28T02:35:20;5.50;;;2.20;;
5587;SDS011;2816;49.778;9.986;2023-12-28T02:37:51;2.87;;;2.50;;
5587;SDS011;2816;49.778;9.986;2023-12-28T02:40:22;3.73;;;3.00;;
5587;SDS011;2816;49.778;9.986;2023-12-28T02:42:51;5.70;;;2.60;;
5587;SDS011;2816;49.778;9.986;2023-12-28T02:45:21;3.10;;;2.80;;
5587;SDS011;2816;49.778;9.986;2023-12-28T02:47:48;7.93;;;2.60;;
5587;SDS011;2816;49.778;9.986;2023-12-28T02:50:14;4.23;;;2.73;;
5587;SDS011;2816;49.778;9.986;2023-12-28T02:52:41;4.67;;;2.90;;
5587;SDS011;2816;49.778;9.986;2023-12-28T02:55:08;2.93;;;2.70;;
5587;SDS011;2816;49.778;9.986;2023-12-28T02:57:37;8.60;;;2.70;;
5587;SDS011;2816;49.778;9.986;2023-12-28T03:00:05;4.57;;;3.07;;
5587;SDS011;2816;49.778;9.986;2023-12-28T03:02:34;3.80;;;2.50;;
5587;SDS011;2816;49.778;9.986;2023-12-28T03:05:02;3.87;;;2.77;;
5587;SDS011;2816;49.778;9.986;2023-12-28T03:07:29;5.90;;;3.47;;
5587;SDS011;2816;49.778;9.986;2023-12-28T03:09:56;4.60;;;2.97;;
5587;SDS011;2816;49.778;9.986;2023-12-28T03:12:22;3.40;;;2.57;;
5587;SDS011;2816;49.778;9.986;2023-12-28T03:14:51;4.00;;;2.67;;
5587;SDS011;2816;49.778;9.986;2023-12-28T03:17:18;4.80;;;2.77;;
5587;SDS011;2816;49.778;9.986;2023-12-28T03:19:45;7.57;;;3.10;;
5587;SDS011;2816;49.778;9.986;2023-12-28T03:22:12;4.43;;;3.17;;
5587;SDS011;2816;49.778;9.986;2023-12-28T03:24:39;6.63;;;2.97;;
5587;SDS011;2816;49.778;9.986;2023-12-28T03:27:06;7.10;;;3.00;;
5587;SDS011;2816;49.778;9.986;2023-12-28T03:29:33;3.50;;;3.00;;
5587;SDS011;2816;49.778;9.986;2023-12-28T03:32:01;3.47;;;2.80;;
5587;SDS011;2816;49.778;9.986;2023-12-28T03:34:28;3.23;;;2.93;;
5587;SDS011;2816;49.778;9.986;2023-12-28T03:36:55;3.33;;;2.77;;
5587;SDS011;2816;49.778;9.986;2023-12-28T03:39:23;3.33;;;3.03;;
5587;SDS011;2816;49.778;9.986;2023-12-28T03:41:50;4.07;;;2.63;;
5587;SDS011;2816;49.778;9.986;2023-12-28T03:44:18;3.57;;;2.77;;
5587;SDS011;2816;49.778;9.986;2023-12-28T03:46:46;3.60;;;3.00;;
5587;SDS011;2816;49.778;9.986;2023-12-28T03:49:16;4.90;;;3.60;;
5587;SDS011;2816;49.778;9.986;2023-12-28T03:51:43;3.63;;;3.20;;
5587;SDS011;2816;49.778;9.986;2023-12-28T03:54:11;3.37;;;3.07;;
5587;SDS011;2816;49.778;9.986;2023-12-28T03:56:38;6.07;;;3.10;;
5587;SDS011;2816;49.778;9.986;2023-12-28T03:59:05;4.10;;;3.37;;
5587;SDS011;2816;49.778;9.986;2023-12-28T04:01:32;4.70;;;2.93;;
5587;SDS011;2816;49.778;9.986;2023-12-28T04:03:59;3.57;;;2.90;;
5587;SDS011;2816;49.778;9.986;2023-12-28T04:06:28;3.93;;;3.20;;
5587;SDS011;2816;49.778;9.986;2023-12-28T04:08:55;3.10;;;2.83;;
5587;SDS011;2816;49.778;9.986;2023-12-28T04:11:22;4.50;;;3.37;;
5587;SDS011;2816;49.778;9.986;2023-12-28T04:13:49;4.00;;;3.00;;
5587;SDS011;2816;49.778;9.986;2023-12-28T04:16:18;9.60;;;3.20;;
5587;SDS011;2816;49.778;9.986;2023-12-28T04:18:45;5.93;;;3.00;;
5587;SDS011;2816;49.778;9.986;2023-12-28T04:21:12;4.70;;;3.37;;
5587;SDS011;2816;49.778;9.986;2023-12-28T04:23:41;3.33;;;2.60;;
5587;SDS011;2816;49.778;9.986;2023-12-28T04:26:08;5.50;;;2.80;;
5587;SDS011;2816;49.778;9.986;2023-12-28T04:28:35;3.97;;;3.17;;
5587;SDS011;2816;49.778;9.986;2023-12-28T04:31:02;5.30;;;3.10;;
5587;SDS011;2816;49.778;9.986;2023-12-28T04:33:30;4.53;;;2.90;;
5587;SDS011;2816;49.778;9.986;2023-12-28T04:35:57;3.00;;;2.30;;
5587;SDS011;2816;49.778;9.986;2023-12-28T04:38:26;4.90;;;2.90;;
5587;SDS011;2816;49.778;9.986;2023-12-28T04:40:55;3.67;;;3.27;;
5587;SDS011;2816;49.778;9.986;2023-12-28T04:43:22;4.27;;;2.90;;
5587;SDS011;2816;49.778;9.986;2023-12-28T04:45:49;4.00;;;3.30;;
5587;SDS011;2816;49.778;9.986;2023-12-28T04:48:16;4.20;;;2.70;;
5587;SDS011;2816;49.778;9.986;2023-12-28T04:50:46;3.80;;;2.83;;
5587;SDS011;2816;49.778;9.986;2023-12-28T04:53:13;6.00;;;2.87;;
5587;SDS011;2816;49.778;9.986;2023-12-28T04:55:42;4.87;;;3.33;;
5587;SDS011;2816;49.778;9.986;2023-12-28T04:58:11;4.87;;;2.67;;
5587;SDS011;2816;49.778;9.986;2023-12-28T05:00:38;4.63;;;2.60;;
5587;SDS011;2816;49.778;9.986;2023-12-28T05:03:05;4.17;;;2.50;;
5587;SDS011;2816;49.778;9.986;2023-12-28T05:05:32;3.23;;;2.90;;
5587;SDS011;2816;49.778;9.986;2023-12-28T05:07:59;3.10;;;2.80;;
5587;SDS011;2816;49.778;9.986;2023-12-28T05:10:26;3.83;;;2.70;;
5587;SDS011;2816;49.778;9.986;2023-12-28T05:12:53;3.10;;;2.77;;
5587;SDS011;2816;49.778;9.986;2023-12-28T05:15:21;3.50;;;2.80;;
5587;SDS011;2816;49.778;9.986;2023-12-28T05:17:48;5.87;;;2.67;;
5587;SDS011;2816;49.778;9.986;2023-12-28T05:20:15;4.90;;;3.20;;
5587;SDS011;2816;49.778;9.986;2023-12-28T05:22:43;5.30;;;2.47;;
5587;SDS011;2816;49.778;9.986;2023-12-28T05:25:10;5.47;;;2.90;;
5587;SDS011;2816;49.778;9.986;2023-12-28T05:27:37;4.13;;;3.20;;
5587;SDS011;2816;49.778;9.986;2023-12-28T05:30:05;3.23;;;2.43;;
5587;SDS011;2816;49.778;9.986;2023-12-28T05:32:37;7.93;;;3.17;;
5587;SDS011;2816;49.778;9.986;2023-12-28T05:35:04;4.57;;;3.20;;
5587;SDS011;2816;49.778;9.986;2023-12-28T05:37:32;4.50;;;2.50;;
5587;SDS011;2816;49.778;9.986;2023-12-28T05:39:59;2.57;;;2.37;;
5587;SDS011;2816;49.778;9.986;2023-12-28T05:42:26;5.30;;;2.83;;
5587;SDS011;2816;49.778;9.986;2023-12-28T05:44:53;2.90;;;2.60;;
5587;SDS011;2816;49.778;9.986;2023-12-28T05:47:20;14.47;;;5.40;;
5587;SDS011;2816;49.778;9.986;2023-12-28T05:49:48;3.43;;;2.40;;
5587;SDS011;2816;49.778;9.986;2023-12-28T05:52:15;3.53;;;2.77;;
5587;SDS011;2816;49.778;9.986;2023-12-28T05:54:43;4.00;;;2.97;;
5587;SDS011;2816;49.778;9.986;2023-12-28T05:57:10;4.90;;;2.97;;
5587;SDS011;2816;49.778;9.986;2023-12-28T05:59:38;3.40;;;2.43;;
5587;SDS011;2816;49.778;9.986;2023-12-28T06:02:06;8.70;;;2.93;;
5587;SDS011;2816;49.778;9.986;2023-12-28T06:04:33;2.70;;;2.17;;
5587;SDS011;2816;49.778;9.986;2023-12-28T06:07:02;5.80;;;2.87;;
5587;SDS011;2816;49.778;9.986;2023-12-28T06:09:29;2.27;;;2.07;;
5587;SDS011;2816;49.778;9.986;2023-12-28T06:11:56;4.00;;;2.07;;
5587;SDS011;2816;49.778;9.986;2023-12-28T06:14:23;3.97;;;1.80;;
5587;SDS011;2816;49.778;9.986;2023-12-28T06:16:50;3.93;;;1.90;;
5587;SDS011;2816;49.778;9.986;2023-12-28T06:19:17;5.53;;;2.33;;
5587;SDS011;2816;49.778;9.986;2023-12-28T06:21:44;3.67;;;2.50;;
5587;SDS011;2816;49.778;9.986;2023-12-28T06:24:12;5.30;;;2.37;;
5587;SDS011;2816;49.778;9.986;2023-12-28T06:26:39;7.43;;;2.73;;
5587;SDS011;2816;49.778;9.986;2023-12-28T06:29:07;5.23;;;2.70;;
5587;SDS011;2816;49.778;9.986;2023-12-28T06:31:34;13.53;;;4.20;;
5587;SDS011;2816;49.778;9.986;2023-12-28T06:34:01;4.03;;;2.33;;
5587;SDS011;2816;49.778;9.986;2023-12-28T06:36:29;3.60;;;2.50;;
5587;SDS011;2816;49.778;9.986;2023-12-28T06:38:56;10.10;;;4.40;;
5587;SDS011;2816;49.778;9.986;2023-12-28T06:41:24;2.37;;;2.17;;
5587;SDS011;2816;49.778;9.986;2023-12-28T06:43:52;2.20;;;1.87;;
5587;SDS011;2816;49.778;9.986;2023-12-28T06:46:19;3.60;;;1.93;;
5587;SDS011;2816;49.778;9.986;2023-12-28T06:48:46;2.00;;;1.90;;
5587;SDS011;2816;49.778;9.986;2023-12-28T06:51:16;2.50;;;1.73;;
5587;SDS011;2816;49.778;9.986;2023-12-28T06:53:43;4.20;;;2.20;;
5587;SDS011;2816;49.778;9.986;2023-12-28T06:56:10;2.93;;;2.10;;
5587;SDS011;2816;49.778;9.986;2023-12-28T06:58:38;5.67;;;2.00;;
5587;SDS011;2816;49.778;9.986;2023-12-28T07:01:05;3.40;;;2.40;;
5587;SDS011;2816;49.778;9.986;2023-12-28T07:03:32;2.20;;;2.00;;
5587;SDS011;2816;49.778;9.986;2023-12-28T07:06:00;4.50;;;2.00;;
5587;SDS011;2816;49.778;9.986;2023-12-28T07:08:28;7.53;;;2.20;;
5587;SDS011;2816;49.778;9.986;2023-12-28T07:10:55;2.03;;;1.83;;
5587;SDS011;2816;49.778;9.986;2023-12-28T07:13:22;3.30;;;2.33;;
5587;SDS011;2816;49.778;9.986;2023-12-28T07:15:50;2.33;;;2.13;;
5587;SDS011;2816;49.778;9.986;2023-12-28T07:18:18;2.20;;;2.00;;
5587;SDS011;2816;49.778;9.986;2023-12-28T07:20:45;1.93;;;1.83;;
5587;SDS011;2816;49.778;9.986;2023-12-28T07:23:12;3.40;;;2.03;;
5587;SDS011;2816;49.778;9.986;2023-12-28T07:25:39;2.00;;;1.90;;
5587;SDS011;2816;49.778;9.986;2023-12-28T07:28:06;2.20;;;2.00;;
5587;SDS011;2816;49.778;9.986;2023-12-28T07:30:33;2.30;;;2.10;;
5587;SDS011;2816;49.778;9.986;2023-12-28T07:33:01;2.97;;;1.70;;
5587;SDS011;2816;49.778;9.986;2023-12-28T07:35:28;2.67;;;1.93;;
5587;SDS011;2816;49.778;9.986;2023-12-28T07:37:55;1.93;;;1.80;;
5587;SDS011;2816;49.778;9.986;2023-12-28T07:40:22;2.13;;;2.00;;
5587;SDS011;2816;49.778;9.986;2023-12-28T07:42:49;3.33;;;1.90;;
5587;SDS011;2816;49.778;9.986;2023-12-28T07:45:16;1.83;;;1.70;;
5587;SDS011;2816;49.778;9.986;2023-12-28T07:47:48;2.37;;;2.17;;
5587;SDS011;2816;49.778;9.986;2023-12-28T07:50:16;2.10;;;1.90;;
5587;SDS011;2816;49.778;9.986;2023-12-28T07:52:44;2.10;;;2.00;;
5587;SDS011;2816;49.778;9.986;2023-12-28T07:55:11;4.03;;;1.80;;
5587;SDS011;2816;49.778;9.986;2023-12-28T07:57:38;2.83;;;2.30;;
5587;SDS011;2816;49.778;9.986;2023-12-28T08:00:05;2.37;;;2.17;;
5587;SDS011;2816;49.778;9.986;2023-12-28T08:02:33;4.03;;;2.33;;
5587;SDS011;2816;49.778;9.986;2023-12-28T08:05:01;3.00;;;2.20;;
5587;SDS011;2816;49.778;9.986;2023-12-28T08:07:30;2.83;;;2.00;;
5587;SDS011;2816;49.778;9.986;2023-12-28T08:09:57;3.37;;;2.50;;
5587;SDS011;2816;49.778;9.986;2023-12-28T08:12:24;3.27;;;2.53;;
5587;SDS011;2816;49.778;9.986;2023-12-28T08:14:52;3.10;;;2.73;;
5587;SDS011;2816;49.778;9.986;2023-12-28T08:17:20;2.60;;;2.40;;
5587;SDS011;2816;49.778;9.986;2023-12-28T08:19:47;3.80;;;2.50;;
5587;SDS011;2816;49.778;9.986;2023-12-28T08:22:13;2.53;;;2.33;;
5587;SDS011;2816;49.778;9.986;2023-12-28T08:24:42;2.70;;;2.50;;
5587;SDS011;2816;49.778;9.986;2023-12-28T08:27:09;2.20;;;2.03;;
5587;SDS011;2816;49.778;9.986;2023-12-28T08:29:36;2.50;;;2.30;;
5587;SDS011;2816;49.778;9.986;2023-12-28T08:32:03;5.30;;;3.10;;
5587;SDS011;2816;49.778;9.986;2023-12-28T08:34:30;4.00;;;2.70;;
5587;SDS011;2816;49.778;9.986;2023-12-28T08:36:57;7.83;;;3.17;;
5587;SDS011;2816;49.778;9.986;2023-12-28T08:39:24;3.10;;;1.90;;
5587;SDS011;2816;49.778;9.986;2023-12-28T08:41:52;5.80;;;2.93;;
5587;SDS011;2816;49.778;9.986;2023-12-28T08:44:19;3.87;;;2.33;;
5587;SDS011;2816;49.778;9.986;2023-12-28T08:46:46;4.30;;;2.67;;
5587;SDS011;2816;49.778;9.986;2023-12-28T08:49:13;3.70;;;2.50;;
5587;SDS011;2816;49.778;9.986;2023-12-28T08:51:40;2.33;;;1.80;;
5587;SDS011;2816;49.778;9.986;2023-12-28T08:54:07;4.00;;;2.03;;
5587;SDS011;2816;49.778;9.986;2023-12-28T08:56:34;3.80;;;1.70;;
5587;SDS011;2816;49.778;9.986;2023-12-28T08:59:04;2.40;;;2.20;;
5587;SDS011;2816;49.778;9.986;2023-12-28T09:01:31;2.60;;;2.20;;
5587;SDS011;2816;49.778;9.986;2023-12-28T09:03:58;2.43;;;2.20;;
5587;SDS011;2816;49.778;9.986;2023-12-28T09:06:26;4.87;;;4.13;;
5587;SDS011;2816;49.778;9.986;2023-12-28T09:08:53;3.47;;;2.77;;
5587;SDS011;2816;49.778;9.986;2023-12-28T09:11:20;4.53;;;3.27;;
5587;SDS011;2816;49.778;9.986;2023-12-28T09:13:47;3.00;;;2.40;;
5587;SDS011;2816;49.778;9.986;2023-12-28T09:16:15;2.40;;;2.20;;
5587;SDS011;2816;49.778;9.986;2023-12-28T09:18:43;2.97;;;2.00;;
5587;SDS011;2816;49.778;9.986;2023-12-28T09:21:09;6.43;;;2.00;;
5587;SDS011;2816;49.778;9.986;2023-12-28T09:23:38;1.90;;;1.80;;
5587;SDS011;2816;49.778;9.986;2023-12-28T09:26:05;2.73;;;2.53;;
5587;SDS011;2816;49.778;9.986;2023-12-28T09:28:32;2.90;;;2.60;;
5587;SDS011;2816;49.778;9.986;2023-12-28T09:31:00;2.57;;;2.37;;
5587;SDS011;2816;49.778;9.986;2023-12-28T09:33:29;2.50;;;2.30;;
5587;SDS011;2816;49.778;9.986;2023-12-28T09:35:56;4.13;;;2.70;;
5587;SDS011;2816;49.778;9.986;2023-12-28T09:38:23;2.83;;;2.53;;
5587;SDS011;2816;49.778;9.986;2023-12-28T09:40:52;3.53;;;2.67;;
5587;SDS011;2816;49.778;9.986;2023-12-28T09:43:21;4.97;;;3.20;;
5587;SDS011;2816;49.778;9.986;2023-12-28T09:45:49;2.70;;;2.50;;
5587;SDS011;2816;49.778;9.986;2023-12-28T09:48:16;2.97;;;2.70;;
5587;SDS011;2816;49.778;9.986;2023-12-28T09:50:45;3.80;;;2.93;;
5587;SDS011;2816;49.778;9.986;2023-12-28T09:53:15;6.30;;;3.60;;
5587;SDS011;2816;49.778;9.986;2023-12-28T09:55:42;4.33;;;3.37;;
5587;SDS011;2816;49.778;9.986;2023-12-28T09:58:09;4.00;;;3.23;;
5587;SDS011;2816;49.778;9.986;2023-12-28T10:00:40;3.90;;;3.03;;
5587;SDS011;2816;49.778;9.986;2023-12-28T10:03:09;5.20;;;3.27;;
5587;SDS011;2816;49.778;9.986;2023-12-28T10:05:37;5.80;;;4.30;;
5587;SDS011;2816;49.778;9.986;2023-12-28T10:08:06;3.97;;;3.57;;
5587;SDS011;2816;49.778;9.986;2023-12-28T10:10:32;3.50;;;3.20;;
5587;SDS011;2816;49.778;9.986;2023-12-28T10:13:00;3.10;;;2.80;;
5587;SDS011;2816;49.778;9.986;2023-12-28T10:15:27;2.80;;;2.60;;
5587;SDS011;2816;49.778;9.986;2023-12-28T10:17:54;3.90;;;3.00;;
5587;SDS011;2816;49.778;9.986;2023-12-28T10:20:21;4.30;;;2.77;;
5587;SDS011;2816;49.778;9.986;2023-12-28T10:22:48;3.27;;;3.00;;
5587;SDS011;2816;49.778;9.986;2023-12-28T10:25:17;3.97;;;3.30;;
5587;SDS011;2816;49.778;9.986;2023-12-28T10:27:44;4.20;;;2.73;;
5587;SDS011;2816;49.778;9.986;2023-12-28T10:30:12;4.93;;;2.97;;
5587;SDS011;2816;49.778;9.986;2023-12-28T10:32:39;4.03;;;3.43;;
5587;SDS011;2816;49.778;9.986;2023-12-28T10:35:07;3.47;;;3.10;;
5587;SDS011;2816;49.778;9.986;2023-12-28T10:37:34;4.90;;;3.67;;
5587;SDS011;2816;49.778;9.986;2023-12-28T10:40:05;8.10;;;3.30;;
5587;SDS011;2816;49.778;9.986;2023-12-28T10:42:37;4.67;;;3.23;;
5587;SDS011;2816;49.778;9.986;2023-12-28T10:45:10;3.73;;;3.33;;
5587;SDS011;2816;49.778;9.986;2023-12-28T10:47:42;4.00;;;3.10;;
5587;SDS011;2816;49.778;9.986;2023-12-28T10:50:11;3.90;;;3.00;;
5587;SDS011;2816;49.778;9.986;2023-12-28T10:52:39;3.60;;;3.20;;
5587;SDS011;2816;49.778;9.986;2023-12-28T10:55:15;4.93;;;3.20;;
5587;SDS011;2816;49.778;9.986;2023-12-28T10:57:56;3.17;;;2.57;;
5587;SDS011;2816;49.778;9.986;2023-12-28T11:00:26;2.67;;;2.33;;
5587;SDS011;2816;49.778;9.986;2023-12-28T11:02:58;7.30;;;2.97;;
5587;SDS011;2816;49.778;9.986;2023-12-28T11:05:31;6.30;;;2.57;;
5587;SDS011;2816;49.778;9.986;2023-12-28T11:08:00;3.23;;;2.23;;
5587;SDS011;2816;49.778;9.986;2023-12-28T11:10:28;4.27;;;2.70;;
5587;SDS011;2816;49.778;9.986;2023-12-28T11:13:00;2.87;;;2.67;;
5587;SDS011;2816;49.778;9.986;2023-12-28T11:15:28;3.10;;;2.80;;
5587;SDS011;2816;49.778;9.986;2023-12-28T11:17:57;3.67;;;2.67;;
5587;SDS011;2816;49.778;9.986;2023-12-28T11:20:24;2.80;;;2.60;;
5587;SDS011;2816;49.778;9.986;2023-12-28T11:22:53;3.80;;;2.50;;
5587;SDS011;2816;49.778;9.986;2023-12-28T11:25:21;3.47;;;2.30;;
5587;SDS011;2816;49.778;9.986;2023-12-28T11:27:48;6.90;;;2.20;;
5587;SDS011;2816;49.778;9.986;2023-12-28T11:30:17;2.43;;;2.20;;
5587;SDS011;2816;49.778;9.986;2023-12-28T11:32:44;7.73;;;3.67;;
5587;SDS011;2816;49.778;9.986;2023-12-28T11:35:11;4.10;;;2.93;;
5587;SDS011;2816;49.778;9.986;2023-12-28T11:37:40;2.50;;;2.27;;
5587;SDS011;2816;49.778;9.986;2023-12-28T11:40:09;3.60;;;2.83;;
5587;SDS011;2816;49.778;9.986;2023-12-28T11:42:46;3.70;;;2.60;;
5587;SDS011;2816;49.778;9.986;2023-12-28T11:45:17;2.87;;;2.40;;
5587;SDS011;2816;49.778;9.986;2023-12-28T11:47:44;2.80;;;2.10;;
5587;SDS011;2816;49.778;9.986;2023-12-28T11:50:11;3.07;;;2.50;;
5587;SDS011;2816;49.778;9.986;2023-12-28T11:52:39;2.90;;;2.70;;
5587;SDS011;2816;49.778;9.986;2023-12-28T11:55:06;2.83;;;2.57;;
5587;SDS011;2816;49.778;9.986;2023-12-28T11:57:33;3.97;;;2.70;;
5587;SDS011;2816;49.778;9.986;2023-12-28T12:00:03;3.07;;;2.70;;
5587;SDS011;2816;49.778;9.986;2023-12-28T12:02:33;2.93;;;2.40;;
5587;SDS011;2816;49.778;9.986;2023-12-28T12:05:00;3.40;;;2.57;;
5587;SDS011;2816;49.778;9.986;2023-12-28T12:07:28;2.47;;;2.27;;
5587;SDS011;2816;49.778;9.986;2023-12-28T12:09:56;3.43;;;2.30;;
5587;SDS011;2816;49.778;9.986;2023-12-28T12:12:23;2.77;;;2.20;;
5587;SDS011;2816;49.778;9.986;2023-12-28T12:14:50;4.97;;;2.90;;
5587;SDS011;2816;49.778;9.986;2023-12-28T12:17:18;3.43;;;3.13;;
5587;SDS011;2816;49.778;9.986;2023-12-28T12:19:47;2.73;;;2.43;;
5587;SDS011;2816;49.778;9.986;2023-12-28T12:22:16;2.73;;;2.00;;
5587;SDS011;2816;49.778;9.986;2023-12-28T12:24:44;3.63;;;3.00;;
5587;SDS011;2816;49.778;9.986;2023-12-28T12:27:13;5.00;;;2.60;;
5587;SDS011;2816;49.778;9.986;2023-12-28T12:29:40;6.13;;;3.00;;
5587;SDS011;2816;49.778;9.986;2023-12-28T12:32:07;8.10;;;3.00;;
5587;SDS011;2816;49.778;9.986;2023-12-28T12:34:34;3.37;;;2.50;;
5587;SDS011;2816;49.778;9.986;2023-12-28T12:37:03;5.70;;;2.80;;
5587;SDS011;2816;49.778;9.986;2023-12-28T12:39:30;2.50;;;2.30;;
5587;SDS011;2816;49.778;9.986;2023-12-28T12:41:57;4.20;;;3.17;;
5587;SDS011;2816;49.778;9.986;2023-12-28T12:44:24;2.70;;;2.50;;
5587;SDS011;2816;49.778;9.986;2023-12-28T12:46:58;4.00;;;2.80;;
5587;SDS011;2816;49.778;9.986;2023-12-28T12:49:25;3.23;;;2.93;;
5587;SDS011;2816;49.778;9.986;2023-12-28T12:51:52;3.80;;;3.43;;
5587;SDS011;2816;49.778;9.986;2023-12-28T12:54:21;3.33;;;3.00;;
5587;SDS011;2816;49.778;9.986;2023-12-28T12:56:49;3.20;;;2.70;;
5587;SDS011;2816;49.778;9.986;2023-12-28T12:59:16;3.37;;;2.97;;
5587;SDS011;2816;49.778;9.986;2023-12-28T13:01:43;5.90;;;3.07;;
5587;SDS011;2816;49.778;9.986;2023-12-28T13:04:13;3.20;;;2.90;;
5587;SDS011;2816;49.778;9.986;2023-12-28T13:06:41;6.47;;;3.90;;
5587;SDS011;2816;49.778;9.986;2023-12-28T13:09:08;5.17;;;2.90;;
5587;SDS011;2816;49.778;9.986;2023-12-28T13:11:37;7.43;;;3.33;;
5587;SDS011;2816;49.778;9.986;2023-12-28T13:14:05;3.20;;;2.93;;
5587;SDS011;2816;49.778;9.986;2023-12-28T13:16:33;3.70;;;3.20;;
5587;SDS011;2816;49.778;9.986;2023-12-28T13:19:00;4.17;;;2.63;;
5587;SDS011;2816;49.778;9.986;2023-12-28T13:21:27;3.60;;;3.00;;
5587;SDS011;2816;49.778;9.986;2023-12-28T13:23:54;4.60;;;2.63;;
5587;SDS011;2816;49.778;9.986;2023-12-28T13:26:24;3.43;;;2.83;;
5587;SDS011;2816;49.778;9.986;2023-12-28T13:28:52;4.70;;;3.30;;
5587;SDS011;2816;49.778;9.986;2023-12-28T13:31:19;4.70;;;3.43;;
5587;SDS011;2816;49.778;9.986;2023-12-28T13:33:47;2.50;;;2.30;;
5587;SDS011;2816;49.778;9.986;2023-12-28T13:36:13;2.87;;;2.53;;
5587;SDS011;2816;49.778;9.986;2023-12-28T13:38:40;3.37;;;2.80;;
5587;SDS011;2816;49.778;9.986;2023-12-28T13:41:07;3.63;;;2.83;;
5587;SDS011;2816;49.778;9.986;2023-12-28T13:43:35;2.67;;;2.47;;
5587;SDS011;2816;49.778;9.986;2023-12-28T13:46:03;3.07;;;2.77;;
5587;SDS011;2816;49.778;9.986;2023-12-28T13:48:30;3.27;;;2.97;;
5587;SDS011;2816;49.778;9.986;2023-12-28T13:50:57;4.80;;;2.87;;
5587;SDS011;2816;49.778;9.986;2023-12-28T13:53:24;3.17;;;2.87;;
5587;SDS011;2816;49.778;9.986;2023-12-28T13:55:51;4.07;;;3.33;;
5587;SDS011;2816;49.778;9.986;2023-12-28T13:58:17;8.43;;;3.00;;
5587;SDS011;2816;49.778;9.986;2023-12-28T14:00:44;2.67;;;2.47;;
5587;SDS011;2816;49.778;9.986;2023-12-28T14:03:12;5.80;;;2.80;;
5587;SDS011;2816;49.778;9.986;2023-12-28T14:05:39;4.47;;;3.37;;
5587;SDS011;2816;49.778;9.986;2023-12-28T14:08:07;3.00;;;2.80;;
5587;SDS011;2816;49.778;9.986;2023-12-28T14:10:34;2.40;;;2.20;;
5587;SDS011;2816;49.778;9.986;2023-12-28T14:13:03;4.47;;;2.67;;
5587;SDS011;2816;49.778;9.986;2023-12-28T14:15:30;4.33;;;2.93;;
5587;SDS011;2816;49.778;9.986;2023-12-28T14:17:57;2.70;;;2.40;;
5587;SDS011;2816;49.778;9.986;2023-12-28T14:20:25;3.57;;;2.63;;
5587;SDS011;2816;49.778;9.986;2023-12-28T14:22:53;2.47;;;2.27;;
5587;SDS011;2816;49.778;9.986;2023-12-28T14:25:20;3.17;;;2.40;;
5587;SDS011;2816;49.778;9.986;2023-12-28T14:27:48;1.90;;;1.73;;
5587;SDS011;2816;49.778;9.986;2023-12-28T14:30:16;5.77;;;2.20;;
5587;SDS011;2816;49.778;9.986;2023-12-28T14:32:44;2.03;;;1.93;;
5587;SDS011;2816;49.778;9.986;2023-12-28T14:35:11;2.43;;;2.20;;
5587;SDS011;2816;49.778;9.986;2023-12-28T14:37:42;2.03;;;1.93;;
5587;SDS011;2816;49.778;9.986;2023-12-28T14:40:09;2.10;;;1.90;;
5587;SDS011;2816;49.778;9.986;2023-12-28T14:42:37;1.87;;;1.77;;
5587;SDS011;2816;49.778;9.986;2023-12-28T14:45:04;2.43;;;2.10;;
5587;SDS011;2816;49.778;9.986;2023-12-28T14:47:32;3.43;;;1.80;;
5587;SDS011;2816;49.778;9.986;2023-12-28T14:49:59;2.47;;;2.10;;
5587;SDS011;2816;49.778;9.986;2023-12-28T14:52:26;2.00;;;1.80;;
5587;SDS011;2816;49.778;9.986;2023-12-28T14:54:55;2.40;;;1.63;;
5587;SDS011;2816;49.778;9.986;2023-12-28T14:57:24;1.70;;;1.60;;
5587;SDS011;2816;49.778;9.986;2023-12-28T14:59:51;1.60;;;1.50;;
5587;SDS011;2816;49.778;9.986;2023-12-28T15:02:18;1.37;;;1.27;;
5587;SDS011;2816;49.778;9.986;2023-12-28T15:04:45;1.70;;;1.60;;
5587;SDS011;2816;49.778;9.986;2023-12-28T15:07:11;1.57;;;1.47;;
5587;SDS011;2816;49.778;9.986;2023-12-28T15:09:38;1.60;;;1.50;;
5587;SDS011;2816;49.778;9.986;2023-12-28T15:12:07;1.17;;;1.17;;
5587;SDS011;2816;49.778;9.986;2023-12-28T15:14:35;1.53;;;1.40;;
5587;SDS011;2816;49.778;9.986;2023-12-28T15:17:02;1.60;;;1.50;;
5587;SDS011;2816;49.778;9.986;2023-12-28T15:19:31;1.33;;;1.23;;